This is the latest recevied weather packets stored in our database for station/object OH2TI. If no packets are shown the sender has not sent any weather packets the latest 10 day(s).
| Time | Temp. | Humidity | Pressure | Rain* | Wind** | Luminosity | Snow |
|---|---|---|---|---|---|---|---|
| 1777728352 | 15.56° C | 48% | 1005.9 hPa | - | - | - | - |
| 1777727653 | 15.56° C | 47% | 1005.9 hPa | - | - | - | - |
| 1777727300 | 16.67° C | 45% | 1006 hPa | - | - | - | - |
| 1777726610 | 17.22° C | 45% | 1006.1 hPa | - | - | - | - |
| 1777725800 | 16.67° C | 46% | 1006.2 hPa | - | - | - | - |
| 1777725180 | 15.56° C | 48% | 1006.3 hPa | - | - | - | - |
| 1777724565 | 15° C | 50% | 1006.3 hPa | - | - | - | - |
| 1777723890 | 14.44° C | 51% | 1006.3 hPa | - | - | - | - |
| 1777723103 | 14.44° C | 50% | 1006.4 hPa | - | - | - | - |
| 1777722710 | 15° C | 49% | 1006.6 hPa | - | - | - | - |
| 1777722210 | 15° C | 49% | 1006.6 hPa | - | - | - | - |
| 1777721490 | 15° C | 50% | 1006.7 hPa | - | - | - | - |
| 1777721030 | 14.44° C | 51% | 1006.6 hPa | - | - | - | - |
| 1777720630 | 13.89° C | 54% | 1006.7 hPa | - | - | - | - |
| 1777719730 | 13.33° C | 56% | 1006.8 hPa | - | - | - | - |
| 1777718900 | 13.33° C | 56% | 1006.8 hPa | - | - | - | - |
| 1777718050 | 12.78° C | 57% | 1006.9 hPa | - | - | - | - |
| 1777717320 | 12.78° C | 59% | 1007 hPa | - | - | - | - |
| 1777716675 | 13.33° C | 57% | 1007 hPa | - | - | - | - |
| 1777716283 | 13.33° C | 57% | 1007 hPa | - | - | - | - |
| 1777715970 | 13.33° C | 58% | 1007.1 hPa | - | - | - | - |
| 1777715193 | 13.33° C | 58% | 1007.2 hPa | - | - | - | - |
| 1777714790 | 12.78° C | 58% | 1007.2 hPa | - | - | - | - |
| 1777714185 | 13.33° C | 57% | 1007.3 hPa | - | - | - | - |
| 1777713772 | 13.33° C | 58% | 1007.2 hPa | - | - | - | - |
* Rain since midnight (hover to see other rain measurements)
** Current wind speed in m/s (hover to see current wind gust speed)